Houghton, MI

9:47 PM EST on December 28, 2014 (GMT -0500)
Hancock: Sylvan Estates | Change Station
CLOSE
Current Station
Personal Weather Station
Location: Hancock, MI
Elevation: 917 ft
Nearby Weather Stations

Elev 917 ft 47.14 °N, 88.60 °W | Updated 7 minutes ago

Overcast
Overcast
15.3 °F
Feels Like 15 °F
N
2.0
Wind Variable Wind from NNW
Gusts 15.0 mph

Today
High -- | Low -- °F
--% Chance of Precip.
Yesterday
High -- | Low -- °F
Precip. -- in
8:40 AM 5:11 PM
First Quarter, 54% visible
Pressure 30.19 in
Visibility 1.0 miles
Clouds Mostly Cloudy 1300 ft
Overcast 2500 ft
Windchill 15 °F
Dew Point 10 °F
Humidity 78%
Rainfall 0.00 in
Snow Depth Not available.
UV 0 out of 12
Pollen .10 out of 12
Air Quality Not available.
Flu Activity Not available.
SPECI KCMX 290242Z AUTO 29015KT 1SM -SN BKN013 OVC025 M11/M14 A3019 RMK AO2 P0000 T11061139

More Conditions Fewer Conditions

Pressure 30.19 in
Visibility 1.0 miles
Clouds Mostly Cloudy 1300 ft
Overcast 2500 ft
Windchill 15 °F
Dew Point 10 °F
Humidity 78%
Rainfall 0.00 in
Snow Depth Not available.
UV 0 out of 12
Pollen .10 out of 12
Air Quality Not available.
Flu Activity Not available.
SPECI KCMX 290242Z AUTO 29015KT 1SM -SN BKN013 OVC025 M11/M14 A3019 RMK AO2 P0000 T11061139

More Conditions Fewer Conditions

10-Day Weather Forecast

Almanac

Astronomy

Dec. 28, 2014 Rise Set
Actual Time
Civil Twilight
Nautical Twilight
Astronomical Twilight
Moon
Length of Visible Light
Length of Day
Tomorrow will be .
, % of the Moon is Illuminated

Today's Extremes

State Highs State Lows

Community

WunderPhotos

Upload Photos

1,781,504 photos uploaded!

WunderBlogs® & News

Nearby

Air Quality

  Air Quality AQ Index Pollutant
Not available.

Snow Depth

Station Depth Elevation

Earthquake Activity

City Distance Mag. Time & Date
Minimum magnitude displayed is 2.5.

Coastal Water Temperatures

Place Temperature

Nearby Weather Stations